KQA116 HKJK-EHAM
Flight info
| Callsign | KQA116 |
|---|---|
| Flight time | N/A |
| Altitude | 36000 |
| Route | ETORU1A LOTAS UM308 RUDOL/N0495F370 UM308 GETOL/N0492F390 UM308 KONET UG650 RASKA/N0494F380 T513 EGMEG/N0490F390 G660 JDW/N0494F380 L677 MIGDA/N0490F400 L677 CVO L617 NOZ L551 ANTAR DCT RIPLI DCT BITLA DCT ENFAR DCT LURID DCT LAMSI DCT MAPOX DCT NORKU |
| Aircraft | B788/H-SDE1E2E3FGHIJ2J3J4J5M1RWXYZ/LB1D1 |
Departure
| Time | 2026-05-05 08:29 |
|---|---|
| Airport | Jomo Kenyatta International Airport (HKJK) |
Arrival
| Time | N/A |
|---|---|
| Airport | Amsterdam Airport Schiphol (EHAM) |
| Time | Latitude | Longitude | Altitude | Speed | Heading |
|---|---|---|---|---|---|
| 2026-05-05 07:57 | -1.33364 | 36.92394 | 5335 ft | 0 kts | 19° |
| 2026-05-05 08:15 | -1.33385 | 36.92389 | 5334 ft | 4 kts | 2° |
| 2026-05-05 08:15 | -1.33408 | 36.92394 | 5334 ft | 4 kts | 327° |
| 2026-05-05 08:15 | -1.33423 | 36.92412 | 5334 ft | 4 kts | 292° |
| 2026-05-05 08:15 | -1.33428 | 36.92438 | 5335 ft | 4 kts | 273° |
| 2026-05-05 08:16 | -1.33426 | 36.92464 | 5335 ft | 4 kts | 257° |
| 2026-05-05 08:16 | -1.33421 | 36.92480 | 5336 ft | 3 kts | 244° |
| 2026-05-05 08:16 | -1.33419 | 36.92483 | 5336 ft | 0 kts | 243° |
| 2026-05-05 08:24 | -1.33420 | 36.92481 | 5335 ft | 3 kts | 242° |
| 2026-05-05 08:24 | -1.33436 | 36.92443 | 5334 ft | 9 kts | 249° |
| 2026-05-05 08:24 | -1.33447 | 36.92383 | 5334 ft | 8 kts | 259° |
| 2026-05-05 08:24 | -1.33466 | 36.92335 | 5332 ft | 7 kts | 241° |
| 2026-05-05 08:25 | -1.33490 | 36.92300 | 5332 ft | 6 kts | 235° |
| 2026-05-05 08:25 | -1.33514 | 36.92266 | 5334 ft | 7 kts | 239° |
| 2026-05-05 08:25 | -1.33516 | 36.92209 | 5332 ft | 10 kts | 298° |
| 2026-05-05 08:25 | -1.33455 | 36.92152 | 5333 ft | 16 kts | 323° |
| 2026-05-05 08:26 | -1.33335 | 36.92064 | 5335 ft | 26 kts | 324° |
| 2026-05-05 08:26 | -1.33195 | 36.91963 | 5335 ft | 23 kts | 324° |
| 2026-05-05 08:26 | -1.33069 | 36.91874 | 5335 ft | 21 kts | 324° |
| 2026-05-05 08:26 | -1.32983 | 36.91810 | 5346 ft | 10 kts | 324° |
| 2026-05-05 08:27 | -1.32934 | 36.91775 | 5344 ft | 8 kts | 323° |
| 2026-05-05 08:27 | -1.32885 | 36.91739 | 5343 ft | 9 kts | 325° |
| 2026-05-05 08:27 | -1.32832 | 36.91703 | 5343 ft | 10 kts | 325° |
| 2026-05-05 08:27 | -1.32759 | 36.91673 | 5343 ft | 13 kts | 10° |
| 2026-05-05 08:28 | -1.32679 | 36.91747 | 5342 ft | 26 kts | 51° |
| 2026-05-05 08:28 | -1.32447 | 36.92064 | 5335 ft | 87 kts | 54° |
| 2026-05-05 08:28 | -1.31979 | 36.92702 | 5321 ft | 142 kts | 54° |
| 2026-05-05 08:28 | -1.31298 | 36.93636 | 5309 ft | 189 kts | 54° |
| 2026-05-05 08:29 | -1.30477 | 36.94797 | 5684 ft | 218 kts | 54° |
| 2026-05-05 08:29 | -1.29501 | 36.96042 | 6497 ft | 235 kts | 52° |
| 2026-05-05 08:29 | -1.28474 | 36.97361 | 7271 ft | 248 kts | 54° |
| 2026-05-05 08:30 | -1.26233 | 37.00398 | 8319 ft | 283 kts | 54° |
| 2026-05-05 08:30 | -1.25052 | 37.01981 | 9263 ft | 286 kts | 54° |
| 2026-05-05 08:30 | -1.23848 | 37.03574 | 10138 ft | 290 kts | 51° |
| 2026-05-05 08:30 | -1.22197 | 37.04839 | 10441 ft | 316 kts | 22° |
| 2026-05-05 08:31 | -1.19952 | 37.05214 | 10679 ft | 342 kts | 355° |
| 2026-05-05 08:31 | -1.17546 | 37.04692 | 10962 ft | 363 kts | 342° |
| 2026-05-05 08:31 | -1.15179 | 37.03824 | 11871 ft | 362 kts | 339° |
| 2026-05-05 08:31 | -1.12814 | 37.02920 | 12691 ft | 366 kts | 341° |
| 2026-05-05 08:32 | -1.10379 | 37.02133 | 13478 ft | 369 kts | 343° |
| 2026-05-05 08:32 | -1.07932 | 37.01393 | 14257 ft | 372 kts | 343° |
| 2026-05-05 08:32 | -1.05440 | 37.00583 | 14938 ft | 377 kts | 342° |
| 2026-05-05 08:32 | -1.02932 | 36.99736 | 15638 ft | 382 kts | 342° |
| 2026-05-05 08:33 | -1.00381 | 36.98897 | 16332 ft | 387 kts | 343° |
| 2026-05-05 08:33 | -0.97824 | 36.98072 | 16975 ft | 392 kts | 343° |
| 2026-05-05 08:33 | -0.95205 | 36.97221 | 17588 ft | 398 kts | 343° |
| 2026-05-05 08:33 | -0.92556 | 36.96350 | 18212 ft | 403 kts | 343° |
| 2026-05-05 08:34 | -0.89872 | 36.95470 | 18758 ft | 408 kts | 343° |
| 2026-05-05 08:34 | -0.87156 | 36.94584 | 19284 ft | 412 kts | 343° |
| 2026-05-05 08:34 | -0.84444 | 36.93699 | 19797 ft | 416 kts | 343° |
| 2026-05-05 08:34 | -0.81672 | 36.92793 | 20324 ft | 421 kts | 343° |
| 2026-05-05 08:35 | -0.78875 | 36.91878 | 20851 ft | 424 kts | 343° |
| 2026-05-05 08:35 | -0.76052 | 36.90954 | 21354 ft | 429 kts | 343° |
| 2026-05-05 08:35 | -0.73200 | 36.90024 | 21857 ft | 432 kts | 343° |
| 2026-05-05 08:35 | -0.70326 | 36.89085 | 22344 ft | 437 kts | 343° |
| 2026-05-05 08:36 | -0.67424 | 36.88135 | 22828 ft | 440 kts | 343° |
| 2026-05-05 08:36 | -0.64503 | 36.87180 | 23300 ft | 444 kts | 343° |
| 2026-05-05 08:36 | -0.61553 | 36.86217 | 23753 ft | 448 kts | 343° |
| 2026-05-05 08:36 | -0.58581 | 36.85246 | 24137 ft | 451 kts | 343° |
| 2026-05-05 08:37 | -0.55582 | 36.84265 | 24515 ft | 454 kts | 343° |
| 2026-05-05 08:37 | -0.52569 | 36.83280 | 24887 ft | 457 kts | 343° |
| 2026-05-05 08:37 | -0.49534 | 36.82289 | 25252 ft | 460 kts | 343° |
| 2026-05-05 08:37 | -0.46477 | 36.81290 | 25617 ft | 463 kts | 343° |
| 2026-05-05 08:38 | -0.43402 | 36.80285 | 25962 ft | 467 kts | 343° |
| 2026-05-05 08:38 | -0.40299 | 36.79271 | 26330 ft | 469 kts | 343° |
| 2026-05-05 08:38 | -0.37182 | 36.78252 | 26674 ft | 472 kts | 343° |
| 2026-05-05 08:38 | -0.34045 | 36.77227 | 27018 ft | 475 kts | 342° |
| 2026-05-05 08:39 | -0.30928 | 36.76208 | 27358 ft | 478 kts | 342° |
| 2026-05-05 08:39 | -0.27760 | 36.75173 | 27713 ft | 480 kts | 342° |
| 2026-05-05 08:39 | -0.24527 | 36.74117 | 28057 ft | 483 kts | 342° |
| 2026-05-05 08:39 | -0.21371 | 36.73085 | 28396 ft | 485 kts | 342° |
| 2026-05-05 08:40 | -0.18153 | 36.72034 | 28715 ft | 488 kts | 342° |
| 2026-05-05 08:40 | -0.14913 | 36.70975 | 29053 ft | 490 kts | 342° |
| 2026-05-05 08:40 | -0.11667 | 36.69914 | 29366 ft | 492 kts | 342° |
| 2026-05-05 08:40 | -0.08361 | 36.68834 | 29665 ft | 495 kts | 342° |
| 2026-05-05 08:41 | -0.05049 | 36.67871 | 29986 ft | 496 kts | 351° |
| 2026-05-05 08:41 | -0.01629 | 36.67353 | 30230 ft | 498 kts | 353° |
| 2026-05-05 08:41 | 0.01813 | 36.66897 | 30499 ft | 500 kts | 353° |
| 2026-05-05 08:41 | 0.05264 | 36.66440 | 30776 ft | 501 kts | 353° |
| 2026-05-05 08:42 | 0.08722 | 36.65956 | 31050 ft | 502 kts | 352° |
| 2026-05-05 08:42 | 0.12189 | 36.65466 | 31301 ft | 504 kts | 353° |
| 2026-05-05 08:42 | 0.15663 | 36.64991 | 31555 ft | 505 kts | 353° |
| 2026-05-05 08:42 | 0.19144 | 36.64519 | 31795 ft | 506 kts | 353° |
| 2026-05-05 08:43 | 0.22631 | 36.64039 | 32028 ft | 507 kts | 353° |
| 2026-05-05 08:43 | 0.26132 | 36.63552 | 32253 ft | 508 kts | 353° |
| 2026-05-05 08:43 | 0.29636 | 36.63069 | 32488 ft | 509 kts | 353° |
| 2026-05-05 08:43 | 0.33150 | 36.62588 | 32714 ft | 510 kts | 353° |
| 2026-05-05 08:44 | 0.36663 | 36.62105 | 33003 ft | 510 kts | 353° |
| 2026-05-05 08:44 | 0.40177 | 36.61620 | 33320 ft | 508 kts | 353° |
| 2026-05-05 08:44 | 0.43675 | 36.61137 | 33639 ft | 507 kts | 353° |
| 2026-05-05 08:44 | 0.47166 | 36.60657 | 33964 ft | 506 kts | 353° |
| 2026-05-05 08:45 | 0.50648 | 36.60178 | 34241 ft | 505 kts | 353° |
| 2026-05-05 08:45 | 0.54125 | 36.59699 | 34489 ft | 504 kts | 353° |
| 2026-05-05 08:45 | 0.57595 | 36.59221 | 34756 ft | 503 kts | 353° |
| 2026-05-05 08:45 | 0.61065 | 36.58743 | 35004 ft | 502 kts | 353° |
| 2026-05-05 08:46 | 0.64529 | 36.58267 | 35267 ft | 502 kts | 353° |
| 2026-05-05 08:46 | 0.67986 | 36.57791 | 35529 ft | 501 kts | 353° |
| 2026-05-05 08:46 | 0.71436 | 36.57315 | 35758 ft | 501 kts | 353° |
| 2026-05-05 08:47 | 0.78388 | 36.56358 | 35745 ft | 504 kts | 353° |
| 2026-05-05 08:47 | 0.85295 | 36.55406 | 35738 ft | 499 kts | 353° |
| 2026-05-05 08:48 | 0.92125 | 36.54466 | 35727 ft | 497 kts | 353° |
| 2026-05-05 08:48 | 0.99044 | 36.53793 | 35755 ft | 495 kts | 5° |
| 2026-05-05 08:49 | 1.05723 | 36.55180 | 35772 ft | 495 kts | 17° |
| 2026-05-05 08:49 | 1.09022 | 36.56149 | 35894 ft | 494 kts | 17° |
| 2026-05-05 08:49 | 1.12321 | 36.57128 | 36010 ft | 495 kts | 17° |
| 2026-05-05 08:50 | 1.18962 | 36.59080 | 36013 ft | 498 kts | 17° |
| 2026-05-05 08:50 | 1.25587 | 36.61029 | 36006 ft | 495 kts | 17° |
| 2026-05-05 08:51 | 1.32197 | 36.62975 | 36001 ft | 495 kts | 17° |
| 2026-05-05 08:51 | 1.38798 | 36.64917 | 35993 ft | 494 kts | 17° |
| 2026-05-05 08:52 | 1.45391 | 36.66858 | 35988 ft | 494 kts | 17° |
| 2026-05-05 08:52 | 1.51990 | 36.68800 | 35982 ft | 495 kts | 17° |
| 2026-05-05 08:53 | 1.57524 | 36.70429 | 35978 ft | 495 kts | 17° |
| 2026-05-05 08:53 | 1.64131 | 36.72373 | 35976 ft | 495 kts | 17° |
| 2026-05-05 08:54 | 1.70741 | 36.74319 | 35977 ft | 495 kts | 17° |
| 2026-05-05 08:54 | 1.77352 | 36.76265 | 35978 ft | 495 kts | 17° |
| 2026-05-05 08:55 | 1.83957 | 36.78210 | 35977 ft | 495 kts | 17° |
| 2026-05-05 08:55 | 1.90564 | 36.80155 | 35983 ft | 495 kts | 17° |
| 2026-05-05 08:56 | 1.97168 | 36.82100 | 35983 ft | 494 kts | 17° |
| 2026-05-05 08:56 | 2.03771 | 36.84045 | 35986 ft | 494 kts | 17° |
| 2026-05-05 08:57 | 2.10368 | 36.85987 | 35980 ft | 494 kts | 17° |
| 2026-05-05 08:57 | 2.16957 | 36.87928 | 35980 ft | 493 kts | 18° |
| 2026-05-05 08:58 | 2.23495 | 36.89854 | 35975 ft | 493 kts | 18° |
| 2026-05-05 08:58 | 2.30106 | 36.91802 | 35972 ft | 492 kts | 18° |
| 2026-05-05 08:59 | 2.36668 | 36.93735 | 35971 ft | 491 kts | 18° |
| 2026-05-05 08:59 | 2.43219 | 36.95666 | 35966 ft | 491 kts | 18° |
| 2026-05-05 09:00 | 2.49778 | 36.97598 | 35965 ft | 492 kts | 18° |
| 2026-05-05 09:00 | 2.56346 | 36.99535 | 35962 ft | 492 kts | 18° |
| 2026-05-05 09:01 | 2.62926 | 37.01472 | 35962 ft | 493 kts | 18° |
| 2026-05-05 09:01 | 2.69498 | 37.03410 | 35960 ft | 493 kts | 18° |
| 2026-05-05 09:02 | 2.76078 | 37.05351 | 35960 ft | 493 kts | 18° |
| 2026-05-05 09:02 | 2.82658 | 37.07290 | 35955 ft | 493 kts | 18° |
| 2026-05-05 09:03 | 2.89230 | 37.09228 | 35953 ft | 493 kts | 18° |
| 2026-05-05 09:03 | 2.95809 | 37.11169 | 35951 ft | 493 kts | 18° |
| 2026-05-05 09:04 | 3.02387 | 37.13109 | 35949 ft | 493 kts | 18° |
| 2026-05-05 09:04 | 3.08973 | 37.15051 | 35942 ft | 493 kts | 18° |
| 2026-05-05 09:05 | 3.15509 | 37.16980 | 35940 ft | 493 kts | 18° |
| 2026-05-05 09:05 | 3.22091 | 37.18922 | 35947 ft | 493 kts | 18° |
| 2026-05-05 09:06 | 3.28679 | 37.20866 | 35946 ft | 493 kts | 18° |
| 2026-05-05 09:06 | 3.35273 | 37.22812 | 35943 ft | 493 kts | 17° |
| 2026-05-05 09:07 | 3.41859 | 37.24756 | 35942 ft | 493 kts | 17° |
| 2026-05-05 09:07 | 3.48444 | 37.26700 | 35948 ft | 493 kts | 17° |
| 2026-05-05 09:08 | 3.55025 | 37.28643 | 35946 ft | 493 kts | 17° |
| 2026-05-05 09:08 | 3.61603 | 37.30586 | 35952 ft | 493 kts | 17° |
| 2026-05-05 09:09 | 3.68175 | 37.32527 | 35955 ft | 492 kts | 17° |
| 2026-05-05 09:09 | 3.74747 | 37.34469 | 35957 ft | 492 kts | 17° |
| 2026-05-05 09:10 | 3.81317 | 37.36410 | 35957 ft | 492 kts | 17° |
| 2026-05-05 09:10 | 3.87882 | 37.38350 | 35955 ft | 492 kts | 17° |
| 2026-05-05 09:11 | 3.94456 | 37.40293 | 35962 ft | 492 kts | 17° |
| 2026-05-05 09:11 | 4.01055 | 37.42194 | 35975 ft | 492 kts | 15° |
| 2026-05-05 09:12 | 4.07640 | 37.43993 | 35970 ft | 491 kts | 16° |
| 2026-05-05 09:12 | 4.14231 | 37.45774 | 35981 ft | 492 kts | 15° |
| 2026-05-05 09:13 | 4.20867 | 37.47566 | 35984 ft | 492 kts | 16° |
| 2026-05-05 09:13 | 4.27487 | 37.49362 | 35990 ft | 493 kts | 16° |
| 2026-05-05 09:14 | 4.34116 | 37.51152 | 35986 ft | 493 kts | 16° |
| 2026-05-05 09:14 | 4.40746 | 37.52951 | 35993 ft | 493 kts | 16° |
| 2026-05-05 09:15 | 4.47379 | 37.54744 | 35998 ft | 494 kts | 16° |
| 2026-05-05 09:15 | 4.54018 | 37.56544 | 35998 ft | 494 kts | 16° |
| 2026-05-05 09:16 | 4.60662 | 37.58343 | 36002 ft | 495 kts | 16° |
| 2026-05-05 09:16 | 4.67313 | 37.60145 | 36005 ft | 495 kts | 16° |
| 2026-05-05 09:17 | 4.73971 | 37.61949 | 36003 ft | 496 kts | 16° |
| 2026-05-05 09:17 | 4.80632 | 37.63755 | 36006 ft | 496 kts | 16° |
| 2026-05-05 09:18 | 4.87300 | 37.65562 | 36006 ft | 496 kts | 16° |
| 2026-05-05 09:18 | 4.93971 | 37.67371 | 36010 ft | 497 kts | 16° |
| 2026-05-05 09:19 | 5.00648 | 37.69182 | 36008 ft | 497 kts | 16° |
| 2026-05-05 09:19 | 5.07322 | 37.70992 | 36010 ft | 497 kts | 16° |
| 2026-05-05 09:20 | 5.13996 | 37.72803 | 36012 ft | 497 kts | 16° |
| 2026-05-05 09:20 | 5.20678 | 37.74616 | 36017 ft | 497 kts | 16° |
| 2026-05-05 09:21 | 5.27357 | 37.76430 | 36020 ft | 498 kts | 16° |
| 2026-05-05 09:21 | 5.34049 | 37.78246 | 36028 ft | 498 kts | 16° |
| 2026-05-05 09:22 | 5.40737 | 37.80063 | 36026 ft | 498 kts | 16° |
| 2026-05-05 09:22 | 5.47432 | 37.81881 | 36026 ft | 498 kts | 15° |
| 2026-05-05 09:23 | 5.54123 | 37.83699 | 36029 ft | 498 kts | 15° |
| 2026-05-05 09:23 | 5.60818 | 37.85518 | 36032 ft | 498 kts | 15° |
| 2026-05-05 09:24 | 5.67512 | 37.87338 | 36024 ft | 498 kts | 15° |
| 2026-05-05 09:24 | 5.74205 | 37.89158 | 36021 ft | 498 kts | 15° |
| 2026-05-05 09:25 | 5.80897 | 37.90978 | 36022 ft | 498 kts | 15° |
| 2026-05-05 09:25 | 5.87582 | 37.92796 | 36019 ft | 498 kts | 15° |
| 2026-05-05 09:26 | 5.94265 | 37.94614 | 36021 ft | 497 kts | 15° |
| 2026-05-05 09:26 | 6.00943 | 37.96432 | 36022 ft | 497 kts | 15° |
| 2026-05-05 09:27 | 6.07614 | 37.98248 | 36021 ft | 497 kts | 15° |
| 2026-05-05 09:27 | 6.14295 | 38.00067 | 36020 ft | 497 kts | 15° |
| 2026-05-05 09:28 | 6.20975 | 38.01886 | 36018 ft | 497 kts | 15° |
| 2026-05-05 09:28 | 6.26573 | 38.03411 | 36023 ft | 497 kts | 15° |
| 2026-05-05 09:29 | 6.33251 | 38.05231 | 36026 ft | 497 kts | 15° |
| 2026-05-05 09:29 | 6.39934 | 38.07053 | 36027 ft | 497 kts | 15° |
| 2026-05-05 09:30 | 6.46570 | 38.08862 | 36025 ft | 497 kts | 15° |
| 2026-05-05 09:30 | 6.53290 | 38.10695 | 36027 ft | 497 kts | 15° |
| 2026-05-05 09:31 | 6.59916 | 38.12489 | 36031 ft | 496 kts | 15° |
| 2026-05-05 09:31 | 6.66583 | 38.14293 | 36036 ft | 496 kts | 15° |
| 2026-05-05 09:32 | 6.73248 | 38.16100 | 36039 ft | 496 kts | 15° |
| 2026-05-05 09:32 | 6.79922 | 38.17907 | 36039 ft | 496 kts | 15° |
| 2026-05-05 09:33 | 6.86596 | 38.19717 | 36043 ft | 497 kts | 15° |
| 2026-05-05 09:33 | 6.93270 | 38.21526 | 36044 ft | 497 kts | 15° |
| 2026-05-05 09:34 | 6.99953 | 38.23339 | 36051 ft | 497 kts | 15° |
| 2026-05-05 09:34 | 7.06638 | 38.25153 | 36050 ft | 497 kts | 15° |
| 2026-05-05 09:35 | 7.13318 | 38.26965 | 36053 ft | 497 kts | 15° |
| 2026-05-05 09:35 | 7.23354 | 38.29690 | 36048 ft | 498 kts | 14° |
| 2026-05-05 09:36 | 7.30040 | 38.31506 | 36051 ft | 497 kts | 14° |
| 2026-05-05 09:36 | 7.36727 | 38.33322 | 36051 ft | 497 kts | 14° |
| 2026-05-05 09:37 | 7.43418 | 38.35140 | 36047 ft | 498 kts | 14° |
| 2026-05-05 09:37 | 7.50114 | 38.36886 | 36049 ft | 497 kts | 13° |
| 2026-05-05 09:38 | 7.56827 | 38.38593 | 36051 ft | 497 kts | 13° |
| 2026-05-05 09:38 | 7.63545 | 38.40247 | 36057 ft | 497 kts | 13° |
| 2026-05-05 09:39 | 7.70265 | 38.41922 | 36052 ft | 497 kts | 13° |
| 2026-05-05 09:39 | 7.76985 | 38.43594 | 36052 ft | 497 kts | 13° |
| 2026-05-05 09:40 | 7.83708 | 38.45264 | 36059 ft | 497 kts | 13° |
| 2026-05-05 09:40 | 7.90424 | 38.46938 | 36063 ft | 497 kts | 13° |
| 2026-05-05 09:41 | 7.97158 | 38.48612 | 36064 ft | 498 kts | 13° |
| 2026-05-05 09:41 | 8.03881 | 38.50288 | 36074 ft | 498 kts | 13° |
| 2026-05-05 09:42 | 8.10626 | 38.51967 | 36074 ft | 499 kts | 13° |
| 2026-05-05 09:42 | 8.17368 | 38.53648 | 36081 ft | 499 kts | 13° |
| 2026-05-05 09:43 | 8.24118 | 38.55332 | 36082 ft | 499 kts | 13° |
| 2026-05-05 09:43 | 8.30870 | 38.57020 | 36087 ft | 500 kts | 13° |
| 2026-05-05 09:44 | 8.37633 | 38.58710 | 36088 ft | 501 kts | 13° |
| 2026-05-05 09:44 | 8.44390 | 38.60400 | 36083 ft | 501 kts | 13° |
| 2026-05-05 09:45 | 8.51156 | 38.62092 | 36075 ft | 501 kts | 13° |
| 2026-05-05 09:45 | 8.57925 | 38.63785 | 36074 ft | 501 kts | 13° |
| 2026-05-05 09:46 | 8.64691 | 38.65479 | 36070 ft | 501 kts | 13° |
| 2026-05-05 09:46 | 8.70967 | 38.67050 | 36071 ft | 501 kts | 13° |
| 2026-05-05 09:47 | 8.77458 | 38.68676 | 36069 ft | 500 kts | 13° |
| 2026-05-05 09:47 | 8.84208 | 38.70367 | 36079 ft | 500 kts | 13° |
| 2026-05-05 09:48 | 8.90965 | 38.72061 | 36012 ft | 500 kts | 13° |
| 2026-05-05 09:48 | 8.97723 | 38.73756 | 36023 ft | 500 kts | 13° |
| 2026-05-05 09:49 | 9.04489 | 38.75453 | 36025 ft | 501 kts | 13° |
| 2026-05-05 09:49 | 9.11293 | 38.76972 | 36056 ft | 500 kts | 4° |
| 2026-05-05 09:50 | 9.18245 | 38.77202 | 36034 ft | 500 kts | 1° |
| 2026-05-05 09:50 | 9.25203 | 38.77384 | 36035 ft | 499 kts | 1° |
| 2026-05-05 09:51 | 9.32149 | 38.77579 | 36029 ft | 499 kts | 1° |
| 2026-05-05 09:51 | 9.39083 | 38.77763 | 36029 ft | 498 kts | 1° |
| 2026-05-05 09:52 | 9.46022 | 38.77954 | 36026 ft | 500 kts | 1° |
| 2026-05-05 09:52 | 9.52981 | 38.78141 | 36018 ft | 501 kts | 1° |
| 2026-05-05 09:53 | 9.59955 | 38.78332 | 36012 ft | 502 kts | 1° |
| 2026-05-05 09:53 | 9.66927 | 38.78521 | 36000 ft | 501 kts | 1° |
| 2026-05-05 09:54 | 9.73896 | 38.78711 | 35987 ft | 500 kts | 1° |
| 2026-05-05 09:54 | 9.80851 | 38.78901 | 35976 ft | 500 kts | 1° |
| 2026-05-05 09:55 | 9.87800 | 38.79090 | 35963 ft | 499 kts | 1° |
| 2026-05-05 09:55 | 9.94746 | 38.79279 | 35958 ft | 499 kts | 1° |
| 2026-05-05 09:56 | 10.01688 | 38.79468 | 35950 ft | 499 kts | 1° |
| 2026-05-05 09:56 | 10.08628 | 38.79658 | 35939 ft | 499 kts | 1° |
| 2026-05-05 09:57 | 10.15588 | 38.79847 | 35929 ft | 500 kts | 1° |
| 2026-05-05 09:57 | 10.22550 | 38.80037 | 35925 ft | 500 kts | 1° |
| 2026-05-05 09:58 | 10.29509 | 38.80228 | 35926 ft | 500 kts | 1° |
| 2026-05-05 09:58 | 10.36474 | 38.80418 | 35930 ft | 500 kts | 1° |
| 2026-05-05 09:59 | 10.43437 | 38.80608 | 35936 ft | 501 kts | 1° |
| 2026-05-05 09:59 | 10.50401 | 38.80799 | 35949 ft | 501 kts | 1° |
| 2026-05-05 10:00 | 10.57330 | 38.80988 | 35961 ft | 501 kts | 1° |
| 2026-05-05 10:00 | 10.64308 | 38.81179 | 35976 ft | 501 kts | 1° |
| 2026-05-05 10:01 | 10.71290 | 38.81370 | 35986 ft | 502 kts | 1° |
| 2026-05-05 10:01 | 10.78278 | 38.81562 | 35997 ft | 502 kts | 1° |
| 2026-05-05 10:02 | 10.84132 | 38.81722 | 36004 ft | 502 kts | 1° |
| 2026-05-05 10:02 | 10.91120 | 38.81914 | 36006 ft | 503 kts | 1° |
| 2026-05-05 10:03 | 10.98114 | 38.82106 | 36005 ft | 503 kts | 1° |
| 2026-05-05 10:03 | 11.05112 | 38.82298 | 36007 ft | 503 kts | 1° |
| 2026-05-05 10:04 | 11.12117 | 38.82491 | 35986 ft | 504 kts | 1° |
| 2026-05-05 10:04 | 11.19123 | 38.82683 | 35981 ft | 504 kts | 1° |
| 2026-05-05 10:05 | 11.26133 | 38.82876 | 35978 ft | 504 kts | 1° |
| 2026-05-05 10:05 | 11.33154 | 38.83069 | 35978 ft | 504 kts | 1° |
| 2026-05-05 10:06 | 11.40162 | 38.83262 | 35981 ft | 504 kts | 1° |
| 2026-05-05 10:06 | 11.47174 | 38.83455 | 35982 ft | 504 kts | 1° |
| 2026-05-05 10:07 | 11.54187 | 38.83648 | 35980 ft | 504 kts | 1° |
| 2026-05-05 10:07 | 11.61207 | 38.83842 | 35986 ft | 504 kts | 1° |
| 2026-05-05 10:08 | 11.68225 | 38.84035 | 35994 ft | 504 kts | 1° |
| 2026-05-05 10:08 | 11.75237 | 38.84228 | 35996 ft | 504 kts | 1° |
| 2026-05-05 10:09 | 11.82253 | 38.84421 | 35996 ft | 504 kts | 1° |
| 2026-05-05 10:09 | 11.89261 | 38.84615 | 35995 ft | 504 kts | 1° |
| 2026-05-05 10:10 | 11.96270 | 38.84808 | 35991 ft | 504 kts | 1° |
| 2026-05-05 10:10 | 12.03321 | 38.85003 | 35989 ft | 503 kts | 1° |
| 2026-05-05 10:11 | 12.10314 | 38.85196 | 35981 ft | 503 kts | 1° |
| 2026-05-05 10:11 | 12.17318 | 38.85390 | 35980 ft | 503 kts | 1° |
| 2026-05-05 10:12 | 12.24280 | 38.85583 | 35975 ft | 504 kts | 1° |
| 2026-05-05 10:12 | 12.31338 | 38.85778 | 35973 ft | 504 kts | 1° |
| 2026-05-05 10:13 | 12.38311 | 38.85973 | 35965 ft | 505 kts | 1° |
| 2026-05-05 10:13 | 12.45337 | 38.86169 | 35957 ft | 505 kts | 1° |
| 2026-05-05 10:14 | 12.52351 | 38.86365 | 35952 ft | 504 kts | 1° |
| 2026-05-05 10:14 | 12.59370 | 38.86562 | 35942 ft | 505 kts | 1° |
| 2026-05-05 10:15 | 12.66392 | 38.86758 | 35931 ft | 505 kts | 1° |
| 2026-05-05 10:15 | 12.73420 | 38.86956 | 35925 ft | 505 kts | 1° |
| 2026-05-05 10:16 | 12.80454 | 38.87152 | 35913 ft | 505 kts | 1° |
| 2026-05-05 10:16 | 12.87475 | 38.87350 | 35906 ft | 505 kts | 1° |
| 2026-05-05 10:17 | 12.94502 | 38.87545 | 35903 ft | 504 kts | 0° |
| 2026-05-05 10:17 | 13.01509 | 38.87649 | 35902 ft | 503 kts | 0° |
| 2026-05-05 10:18 | 13.08514 | 38.87783 | 35895 ft | 503 kts | 0° |
| 2026-05-05 10:18 | 13.15510 | 38.87906 | 35897 ft | 503 kts | 0° |
| 2026-05-05 10:19 | 13.22510 | 38.88032 | 35897 ft | 503 kts | 0° |
| 2026-05-05 10:19 | 13.29513 | 38.88158 | 35904 ft | 504 kts | 0° |
| 2026-05-05 10:20 | 13.36526 | 38.88283 | 35910 ft | 504 kts | 0° |
| 2026-05-05 10:20 | 13.43540 | 38.88410 | 35917 ft | 504 kts | 0° |
| 2026-05-05 10:21 | 13.50558 | 38.88536 | 35918 ft | 505 kts | 360° |
| 2026-05-05 10:21 | 13.57588 | 38.88663 | 35917 ft | 505 kts | 360° |
| 2026-05-05 10:22 | 13.64614 | 38.88789 | 35923 ft | 505 kts | 360° |
| 2026-05-05 10:22 | 13.71640 | 38.88916 | 35926 ft | 504 kts | 360° |
| 2026-05-05 10:23 | 13.78666 | 38.89043 | 35923 ft | 504 kts | 360° |
| 2026-05-05 10:23 | 13.85683 | 38.89169 | 35933 ft | 504 kts | 360° |
| 2026-05-05 10:24 | 13.92697 | 38.89296 | 35939 ft | 504 kts | 360° |
| 2026-05-05 10:24 | 13.99710 | 38.89423 | 35939 ft | 504 kts | 360° |
| 2026-05-05 10:25 | 14.06734 | 38.89544 | 35945 ft | 504 kts | 359° |
| 2026-05-05 10:25 | 14.13752 | 38.89599 | 35941 ft | 504 kts | 359° |
| 2026-05-05 10:26 | 14.20768 | 38.89686 | 35939 ft | 505 kts | 359° |
| 2026-05-05 10:26 | 14.27795 | 38.89757 | 35940 ft | 505 kts | 359° |
| 2026-05-05 10:27 | 14.34813 | 38.89836 | 35931 ft | 504 kts | 359° |
| 2026-05-05 10:27 | 14.41833 | 38.89911 | 35927 ft | 504 kts | 359° |
| 2026-05-05 10:28 | 14.48850 | 38.89987 | 35929 ft | 504 kts | 359° |
| 2026-05-05 10:28 | 14.55882 | 38.90017 | 35919 ft | 504 kts | 359° |
| 2026-05-05 10:29 | 14.62902 | 38.90006 | 35920 ft | 502 kts | 359° |
| 2026-05-05 10:29 | 14.69864 | 38.90026 | 35927 ft | 502 kts | 359° |
| 2026-05-05 10:30 | 14.76860 | 38.90025 | 35937 ft | 501 kts | 359° |
| 2026-05-05 10:30 | 14.83843 | 38.90037 | 35948 ft | 501 kts | 359° |
| 2026-05-05 10:31 | 14.90819 | 38.90041 | 35955 ft | 501 kts | 359° |
| 2026-05-05 10:31 | 14.97795 | 38.90051 | 35969 ft | 501 kts | 359° |
| 2026-05-05 10:32 | 15.04776 | 38.90056 | 35977 ft | 501 kts | 359° |
| 2026-05-05 10:32 | 15.11745 | 38.90065 | 35986 ft | 501 kts | 359° |
| 2026-05-05 10:33 | 15.18730 | 38.90070 | 35993 ft | 501 kts | 359° |
| 2026-05-05 10:33 | 15.25715 | 38.90079 | 35990 ft | 501 kts | 359° |
| 2026-05-05 10:34 | 15.32699 | 38.90265 | 35987 ft | 501 kts | 0° |
| 2026-05-05 10:34 | 15.39674 | 38.90465 | 35985 ft | 502 kts | 1° |
| 2026-05-05 10:35 | 15.46660 | 38.90744 | 35979 ft | 502 kts | 1° |
| 2026-05-05 10:35 | 15.53659 | 38.90980 | 35968 ft | 502 kts | 0° |
| 2026-05-05 10:36 | 15.59456 | 38.91193 | 35964 ft | 502 kts | 0° |
| 2026-05-05 10:36 | 15.66439 | 38.91443 | 35949 ft | 502 kts | 0° |
| 2026-05-05 10:37 | 15.73426 | 38.91695 | 35934 ft | 503 kts | 0° |
| 2026-05-05 10:37 | 15.80414 | 38.91947 | 35930 ft | 502 kts | 0° |
| 2026-05-05 10:38 | 15.87405 | 38.92197 | 35915 ft | 502 kts | 0° |
| 2026-05-05 10:38 | 15.94391 | 38.92450 | 35910 ft | 502 kts | 0° |
| 2026-05-05 10:39 | 16.01379 | 38.92701 | 35902 ft | 503 kts | 0° |
| 2026-05-05 10:39 | 16.08373 | 38.92954 | 35892 ft | 503 kts | 0° |
| 2026-05-05 10:40 | 16.15365 | 38.93206 | 35887 ft | 503 kts | 0° |
| 2026-05-05 10:40 | 16.22364 | 38.93459 | 35886 ft | 502 kts | 0° |
| 2026-05-05 10:41 | 16.29356 | 38.93712 | 35880 ft | 502 kts | 0° |
| 2026-05-05 10:41 | 16.36340 | 38.93964 | 35882 ft | 502 kts | 0° |
| 2026-05-05 10:42 | 16.46833 | 38.94344 | 35869 ft | 502 kts | 0° |
| 2026-05-05 10:43 | 16.53819 | 38.94597 | 35874 ft | 502 kts | 0° |
| 2026-05-05 10:43 | 16.60809 | 38.94851 | 35869 ft | 503 kts | 0° |
| 2026-05-05 10:44 | 16.67804 | 38.95104 | 35864 ft | 503 kts | 0° |
| 2026-05-05 10:44 | 16.74799 | 38.95359 | 35868 ft | 503 kts | 0° |
| 2026-05-05 10:45 | 16.81790 | 38.95612 | 35865 ft | 503 kts | 0° |
| 2026-05-05 10:45 | 16.88784 | 38.95867 | 35867 ft | 503 kts | 0° |
| 2026-05-05 10:46 | 16.95785 | 38.96122 | 35871 ft | 503 kts | 0° |
| 2026-05-05 10:46 | 17.02784 | 38.96377 | 35865 ft | 503 kts | 0° |
| 2026-05-05 10:47 | 17.09787 | 38.96633 | 35867 ft | 503 kts | 360° |
| 2026-05-05 10:47 | 17.16791 | 38.96887 | 35864 ft | 503 kts | 0° |
| 2026-05-05 10:48 | 17.23795 | 38.97144 | 35865 ft | 504 kts | 360° |
| 2026-05-05 10:48 | 17.30807 | 38.97399 | 35868 ft | 504 kts | 0° |
| 2026-05-05 10:49 | 17.37823 | 38.97656 | 35870 ft | 504 kts | 360° |
| 2026-05-05 10:49 | 17.44839 | 38.97912 | 35864 ft | 504 kts | 360° |
| 2026-05-05 10:50 | 17.51854 | 38.98162 | 35866 ft | 504 kts | 360° |
| 2026-05-05 10:50 | 17.58873 | 38.98414 | 35867 ft | 505 kts | 360° |
| 2026-05-05 10:51 | 17.65854 | 38.98664 | 35870 ft | 505 kts | 360° |
| 2026-05-05 10:51 | 17.72879 | 38.98917 | 35870 ft | 505 kts | 360° |
| 2026-05-05 10:52 | 17.79951 | 38.99171 | 35871 ft | 505 kts | 360° |
| 2026-05-05 10:52 | 17.86920 | 38.99422 | 35869 ft | 504 kts | 360° |
| 2026-05-05 10:53 | 17.93976 | 38.99676 | 35868 ft | 504 kts | 360° |
| 2026-05-05 10:53 | 18.00990 | 38.99928 | 35872 ft | 505 kts | 360° |
| 2026-05-05 10:54 | 18.08028 | 39.00182 | 35873 ft | 506 kts | 360° |
| 2026-05-05 10:54 | 18.15075 | 39.00436 | 35873 ft | 507 kts | 359° |
| 2026-05-05 10:55 | 18.22123 | 39.00826 | 35871 ft | 507 kts | 360° |
| 2026-05-05 10:55 | 18.29164 | 39.01158 | 35876 ft | 507 kts | 1° |
| 2026-05-05 10:56 | 18.36210 | 39.01583 | 35873 ft | 507 kts | 0° |
| 2026-05-05 10:56 | 18.43261 | 39.01951 | 35872 ft | 508 kts | 0° |
| 2026-05-05 10:57 | 18.50315 | 39.02354 | 35873 ft | 508 kts | 0° |
| 2026-05-05 10:57 | 18.57367 | 39.02737 | 35872 ft | 507 kts | 0° |
| 2026-05-05 10:58 | 18.64423 | 39.03131 | 35876 ft | 508 kts | 0° |
| 2026-05-05 10:58 | 18.71485 | 39.03521 | 35877 ft | 508 kts | 0° |
| 2026-05-05 10:59 | 18.78538 | 39.03913 | 35872 ft | 507 kts | 0° |
| 2026-05-05 10:59 | 18.85592 | 39.04305 | 35872 ft | 508 kts | 360° |
| 2026-05-05 11:00 | 18.92652 | 39.04697 | 35873 ft | 508 kts | 360° |
| 2026-05-05 11:00 | 18.99717 | 39.05090 | 35877 ft | 508 kts | 360° |
| 2026-05-05 11:01 | 19.06802 | 39.05485 | 35870 ft | 509 kts | 360° |
| 2026-05-05 11:01 | 19.13800 | 39.05361 | 35890 ft | 502 kts | 345° |
| 2026-05-05 11:02 | 19.20552 | 39.03540 | 35868 ft | 500 kts | 341° |
| 2026-05-05 11:02 | 19.27288 | 39.01609 | 35873 ft | 500 kts | 341° |
| 2026-05-05 11:03 | 19.33971 | 38.99714 | 35870 ft | 499 kts | 341° |
| 2026-05-05 11:03 | 19.40696 | 38.97790 | 35871 ft | 499 kts | 341° |
| 2026-05-05 11:04 | 19.47406 | 38.95878 | 35870 ft | 499 kts | 340° |
| 2026-05-05 11:04 | 19.54094 | 38.93966 | 35863 ft | 500 kts | 340° |
| 2026-05-05 11:05 | 19.60832 | 38.92040 | 35866 ft | 501 kts | 340° |
| 2026-05-05 11:05 | 19.67569 | 38.90112 | 35867 ft | 501 kts | 340° |
| 2026-05-05 11:06 | 19.74320 | 38.88179 | 35867 ft | 501 kts | 340° |
| 2026-05-05 11:06 | 19.81062 | 38.86246 | 35863 ft | 502 kts | 340° |
| 2026-05-05 11:07 | 19.87806 | 38.84312 | 35864 ft | 502 kts | 340° |
| 2026-05-05 11:07 | 19.94549 | 38.82375 | 35861 ft | 502 kts | 340° |
| 2026-05-05 11:08 | 20.01295 | 38.80436 | 35861 ft | 502 kts | 340° |
| 2026-05-05 11:08 | 20.08037 | 38.78497 | 35862 ft | 502 kts | 339° |
| 2026-05-05 11:09 | 20.14786 | 38.76554 | 35860 ft | 502 kts | 339° |
| 2026-05-05 11:09 | 20.21523 | 38.74612 | 35860 ft | 501 kts | 339° |
| 2026-05-05 11:10 | 20.28249 | 38.72672 | 35865 ft | 501 kts | 339° |
| 2026-05-05 11:10 | 20.34976 | 38.70730 | 35863 ft | 501 kts | 339° |
| 2026-05-05 11:11 | 20.41705 | 38.68786 | 35864 ft | 501 kts | 339° |
| 2026-05-05 11:11 | 20.48422 | 38.66843 | 35868 ft | 500 kts | 339° |
| 2026-05-05 11:12 | 20.53996 | 38.65229 | 35874 ft | 499 kts | 339° |
| 2026-05-05 11:12 | 20.60703 | 38.63286 | 35871 ft | 499 kts | 339° |
| 2026-05-05 11:13 | 20.67415 | 38.61340 | 35878 ft | 500 kts | 339° |
| 2026-05-05 11:13 | 20.74124 | 38.59393 | 35876 ft | 499 kts | 339° |
| 2026-05-05 11:14 | 20.80929 | 38.57836 | 35886 ft | 508 kts | 351° |
| 2026-05-05 11:14 | 20.88054 | 38.58552 | 35903 ft | 524 kts | 11° |
| 2026-05-05 11:14 | 20.91498 | 38.59893 | 35907 ft | 531 kts | 22° |
| 2026-05-05 11:15 | 20.94734 | 38.61829 | 35876 ft | 535 kts | 27° |
| 2026-05-05 11:15 | 21.01091 | 38.65998 | 35889 ft | 536 kts | 27° |
| 2026-05-05 11:16 | 21.07449 | 38.70180 | 35877 ft | 536 kts | 27° |
| 2026-05-05 11:16 | 21.13819 | 38.74362 | 35873 ft | 538 kts | 27° |
| 2026-05-05 11:17 | 21.20198 | 38.78566 | 35868 ft | 538 kts | 27° |
| 2026-05-05 11:17 | 21.26580 | 38.82767 | 35866 ft | 539 kts | 27° |
| 2026-05-05 11:18 | 21.32965 | 38.86981 | 35868 ft | 539 kts | 27° |
| 2026-05-05 11:18 | 21.39348 | 38.91193 | 35866 ft | 539 kts | 27° |
| 2026-05-05 11:19 | 21.45734 | 38.95415 | 35862 ft | 539 kts | 27° |
| 2026-05-05 11:19 | 21.52134 | 38.99649 | 35861 ft | 539 kts | 27° |
| 2026-05-05 11:20 | 21.58519 | 39.03877 | 35865 ft | 540 kts | 27° |
| 2026-05-05 11:20 | 21.65025 | 39.07834 | 35888 ft | 532 kts | 15° |
| 2026-05-05 11:21 | 21.72095 | 39.09545 | 35887 ft | 514 kts | 355° |
| 2026-05-05 11:21 | 21.79038 | 39.08732 | 35883 ft | 494 kts | 335° |
| 2026-05-05 11:22 | 21.85404 | 39.06123 | 35864 ft | 490 kts | 330° |
| 2026-05-05 11:22 | 21.91679 | 39.03373 | 35860 ft | 490 kts | 330° |
| 2026-05-05 11:23 | 21.97988 | 39.00613 | 35865 ft | 489 kts | 330° |
| 2026-05-05 11:23 | 22.04294 | 38.97847 | 35870 ft | 489 kts | 330° |
| 2026-05-05 11:24 | 22.10638 | 38.95064 | 35872 ft | 489 kts | 330° |
| 2026-05-05 11:24 | 22.16940 | 38.92295 | 35873 ft | 489 kts | 329° |
| 2026-05-05 11:25 | 22.23204 | 38.89542 | 35873 ft | 489 kts | 329° |
| 2026-05-05 11:25 | 22.29503 | 38.86769 | 35877 ft | 489 kts | 329° |
| 2026-05-05 11:26 | 22.35807 | 38.83992 | 35878 ft | 489 kts | 329° |
| 2026-05-05 11:26 | 22.42118 | 38.81209 | 35881 ft | 490 kts | 329° |
| 2026-05-05 11:27 | 22.48436 | 38.78421 | 35876 ft | 490 kts | 329° |
| 2026-05-05 11:27 | 22.54750 | 38.75632 | 35886 ft | 490 kts | 329° |
| 2026-05-05 11:28 | 22.61069 | 38.72836 | 35882 ft | 489 kts | 329° |
| 2026-05-05 11:28 | 22.67356 | 38.70053 | 35884 ft | 490 kts | 329° |
| 2026-05-05 11:29 | 22.73683 | 38.67248 | 35889 ft | 490 kts | 329° |
| 2026-05-05 11:29 | 22.79971 | 38.64458 | 35893 ft | 490 kts | 328° |
| 2026-05-05 11:30 | 22.86297 | 38.61648 | 35893 ft | 490 kts | 328° |
| 2026-05-05 11:30 | 22.92612 | 38.58840 | 35896 ft | 490 kts | 328° |
| 2026-05-05 11:31 | 22.98921 | 38.56032 | 35898 ft | 490 kts | 328° |
| 2026-05-05 11:31 | 23.05235 | 38.53220 | 35896 ft | 490 kts | 328° |
| 2026-05-05 11:32 | 23.11513 | 38.50419 | 35905 ft | 490 kts | 328° |
| 2026-05-05 11:32 | 23.17830 | 38.47600 | 35901 ft | 490 kts | 328° |
| 2026-05-05 11:33 | 23.24141 | 38.44779 | 35903 ft | 489 kts | 328° |
| 2026-05-05 11:33 | 23.30448 | 38.41958 | 35908 ft | 489 kts | 328° |
| 2026-05-05 11:34 | 23.36742 | 38.39140 | 35908 ft | 489 kts | 328° |
| 2026-05-05 11:34 | 23.43040 | 38.36316 | 35905 ft | 489 kts | 328° |
| 2026-05-05 11:35 | 23.49335 | 38.33492 | 35906 ft | 489 kts | 328° |
| 2026-05-05 11:35 | 23.55625 | 38.30666 | 35906 ft | 489 kts | 328° |
| 2026-05-05 11:36 | 23.61913 | 38.27839 | 35900 ft | 489 kts | 328° |
| 2026-05-05 11:36 | 23.68207 | 38.25005 | 35898 ft | 489 kts | 327° |
| 2026-05-05 11:37 | 23.74499 | 38.22169 | 35891 ft | 489 kts | 327° |
| 2026-05-05 11:37 | 23.80800 | 38.19326 | 35894 ft | 489 kts | 327° |
| 2026-05-05 11:38 | 23.87090 | 38.16485 | 35862 ft | 489 kts | 327° |
| 2026-05-05 11:38 | 23.93373 | 38.13643 | 35844 ft | 489 kts | 327° |
| 2026-05-05 11:39 | 23.99656 | 38.10800 | 35827 ft | 488 kts | 327° |
| 2026-05-05 11:39 | 24.05924 | 38.07959 | 35812 ft | 487 kts | 327° |
| 2026-05-05 11:40 | 24.12178 | 38.05122 | 35814 ft | 486 kts | 327° |
| 2026-05-05 11:40 | 24.17964 | 38.01612 | 35814 ft | 469 kts | 315° |
| 2026-05-05 11:41 | 24.23368 | 37.97557 | 35806 ft | 471 kts | 315° |
| 2026-05-05 11:41 | 24.28783 | 37.93501 | 35809 ft | 471 kts | 315° |
| 2026-05-05 11:42 | 24.34184 | 37.89443 | 35818 ft | 470 kts | 315° |
| 2026-05-05 11:42 | 24.39541 | 37.85419 | 35823 ft | 470 kts | 315° |
| 2026-05-05 11:43 | 24.44937 | 37.81358 | 35836 ft | 470 kts | 315° |
| 2026-05-05 11:43 | 24.50326 | 37.77301 | 35845 ft | 469 kts | 315° |
| 2026-05-05 11:44 | 24.55711 | 37.73239 | 35854 ft | 470 kts | 315° |
| 2026-05-05 11:44 | 24.61116 | 37.69161 | 35867 ft | 470 kts | 315° |
| 2026-05-05 11:45 | 24.66525 | 37.65074 | 35873 ft | 471 kts | 315° |
| 2026-05-05 11:45 | 24.71897 | 37.61010 | 35887 ft | 471 kts | 315° |
| 2026-05-05 11:46 | 24.77308 | 37.56914 | 35893 ft | 471 kts | 315° |
| 2026-05-05 11:46 | 24.82707 | 37.52821 | 35904 ft | 471 kts | 315° |
| 2026-05-05 11:47 | 24.88108 | 37.48724 | 35906 ft | 471 kts | 315° |
| 2026-05-05 11:47 | 24.93494 | 37.44631 | 35920 ft | 470 kts | 315° |
| 2026-05-05 11:48 | 25.00659 | 37.39183 | 35926 ft | 470 kts | 315° |
| 2026-05-05 11:48 | 25.06042 | 37.35083 | 35919 ft | 470 kts | 315° |
| 2026-05-05 11:49 | 25.12308 | 37.30305 | 35930 ft | 470 kts | 315° |
| 2026-05-05 11:49 | 25.16822 | 37.26861 | 35928 ft | 470 kts | 315° |
| 2026-05-05 11:50 | 25.22178 | 37.22768 | 35932 ft | 469 kts | 315° |
| 2026-05-05 11:50 | 25.27554 | 37.18656 | 35939 ft | 469 kts | 315° |
| 2026-05-05 11:51 | 25.32938 | 37.14532 | 35933 ft | 469 kts | 315° |
| 2026-05-05 11:51 | 25.38286 | 37.10432 | 35928 ft | 469 kts | 315° |
| 2026-05-05 11:52 | 25.43666 | 37.06302 | 35931 ft | 469 kts | 315° |
| 2026-05-05 11:52 | 25.49013 | 37.02192 | 35924 ft | 470 kts | 315° |
| 2026-05-05 11:53 | 25.54398 | 36.98049 | 35925 ft | 470 kts | 315° |
| 2026-05-05 11:53 | 25.59774 | 36.93909 | 35925 ft | 470 kts | 315° |
| 2026-05-05 11:54 | 25.65123 | 36.89784 | 35928 ft | 470 kts | 315° |
| 2026-05-05 11:54 | 25.70507 | 36.85628 | 35932 ft | 471 kts | 315° |
| 2026-05-05 11:55 | 25.75860 | 36.81492 | 35938 ft | 471 kts | 315° |
| 2026-05-05 11:55 | 25.81253 | 36.77319 | 35947 ft | 471 kts | 315° |
| 2026-05-05 11:56 | 25.86626 | 36.73157 | 35943 ft | 471 kts | 315° |
| 2026-05-05 11:56 | 25.91997 | 36.68992 | 35955 ft | 471 kts | 315° |
| 2026-05-05 11:57 | 25.97368 | 36.64823 | 35960 ft | 471 kts | 315° |
| 2026-05-05 11:57 | 26.02734 | 36.60651 | 35955 ft | 471 kts | 316° |
| 2026-05-05 11:58 | 26.08100 | 36.56476 | 35947 ft | 471 kts | 316° |
| 2026-05-05 11:58 | 26.13465 | 36.52297 | 35949 ft | 471 kts | 316° |
| 2026-05-05 11:59 | 26.18658 | 36.47940 | 35955 ft | 460 kts | 307° |
| 2026-05-05 11:59 | 26.23097 | 36.42871 | 35947 ft | 457 kts | 305° |
| 2026-05-05 12:00 | 26.27519 | 36.37786 | 35950 ft | 456 kts | 305° |
| 2026-05-05 12:00 | 26.31934 | 36.32691 | 35952 ft | 457 kts | 305° |
| 2026-05-05 12:01 | 26.36352 | 36.27595 | 35959 ft | 457 kts | 305° |
| 2026-05-05 12:01 | 26.40771 | 36.22488 | 35964 ft | 457 kts | 305° |
| 2026-05-05 12:02 | 26.45193 | 36.17372 | 35968 ft | 458 kts | 306° |
| 2026-05-05 12:02 | 26.49624 | 36.12241 | 35969 ft | 458 kts | 306° |
| 2026-05-05 12:03 | 26.54035 | 36.07126 | 35969 ft | 457 kts | 306° |
| 2026-05-05 12:03 | 26.58441 | 36.02011 | 35974 ft | 457 kts | 306° |
| 2026-05-05 12:04 | 26.62847 | 35.96889 | 35970 ft | 457 kts | 306° |
| 2026-05-05 12:04 | 26.67250 | 35.91766 | 35976 ft | 457 kts | 306° |
| 2026-05-05 12:05 | 26.71646 | 35.86644 | 35982 ft | 456 kts | 306° |
| 2026-05-05 12:05 | 26.76035 | 35.81524 | 35976 ft | 456 kts | 306° |
| 2026-05-05 12:06 | 26.80420 | 35.76403 | 35967 ft | 455 kts | 306° |
| 2026-05-05 12:06 | 26.84797 | 35.71287 | 35964 ft | 454 kts | 306° |
| 2026-05-05 12:07 | 26.89163 | 35.66176 | 35972 ft | 453 kts | 306° |
| 2026-05-05 12:07 | 26.93523 | 35.61067 | 35966 ft | 453 kts | 306° |
| 2026-05-05 12:08 | 26.97879 | 35.55956 | 35971 ft | 453 kts | 306° |
| 2026-05-05 12:08 | 27.02234 | 35.50841 | 35973 ft | 453 kts | 306° |
| 2026-05-05 12:09 | 27.06584 | 35.45725 | 35975 ft | 452 kts | 306° |
| 2026-05-05 12:09 | 27.10924 | 35.40615 | 35974 ft | 452 kts | 306° |
| 2026-05-05 12:10 | 27.15257 | 35.35506 | 35975 ft | 452 kts | 306° |
| 2026-05-05 12:10 | 27.19595 | 35.30387 | 35972 ft | 452 kts | 306° |
| 2026-05-05 12:11 | 27.23926 | 35.25268 | 35971 ft | 452 kts | 306° |
| 2026-05-05 12:11 | 27.28253 | 35.20150 | 35975 ft | 451 kts | 306° |
| 2026-05-05 12:12 | 27.32575 | 35.15029 | 35968 ft | 451 kts | 306° |
| 2026-05-05 12:12 | 27.36897 | 35.09904 | 35970 ft | 452 kts | 306° |
| 2026-05-05 12:13 | 27.41252 | 35.04733 | 35970 ft | 451 kts | 306° |
| 2026-05-05 12:13 | 27.45540 | 34.99634 | 35965 ft | 451 kts | 306° |
| 2026-05-05 12:14 | 27.49866 | 34.94484 | 35965 ft | 451 kts | 306° |
| 2026-05-05 12:14 | 27.54393 | 34.89523 | 35963 ft | 455 kts | 309° |
| 2026-05-05 12:15 | 27.58979 | 34.84676 | 35969 ft | 454 kts | 309° |
| 2026-05-05 12:15 | 27.63590 | 34.79803 | 35966 ft | 454 kts | 309° |
| 2026-05-05 12:16 | 27.68217 | 34.74906 | 35963 ft | 453 kts | 309° |
| 2026-05-05 12:16 | 27.72801 | 34.70047 | 35963 ft | 451 kts | 309° |
| 2026-05-05 12:17 | 27.77373 | 34.65196 | 35965 ft | 451 kts | 309° |
| 2026-05-05 12:17 | 27.81946 | 34.60337 | 35970 ft | 451 kts | 309° |
| 2026-05-05 12:18 | 27.86519 | 34.55474 | 35968 ft | 451 kts | 309° |
| 2026-05-05 12:18 | 27.91086 | 34.50611 | 35974 ft | 450 kts | 309° |
| 2026-05-05 12:19 | 27.95642 | 34.45753 | 35975 ft | 450 kts | 309° |
| 2026-05-05 12:19 | 28.00114 | 34.40874 | 35984 ft | 444 kts | 303° |
| 2026-05-05 12:20 | 28.04027 | 34.35493 | 35974 ft | 442 kts | 302° |
| 2026-05-05 12:20 | 28.07940 | 34.30090 | 35980 ft | 443 kts | 302° |
| 2026-05-05 12:21 | 28.11843 | 34.24678 | 35976 ft | 445 kts | 302° |
| 2026-05-05 12:21 | 28.15757 | 34.19257 | 35982 ft | 444 kts | 302° |
| 2026-05-05 12:22 | 28.19656 | 34.13840 | 35980 ft | 444 kts | 302° |
| 2026-05-05 12:22 | 28.23555 | 34.08421 | 35993 ft | 443 kts | 302° |
| 2026-05-05 12:23 | 28.26818 | 34.03879 | 35988 ft | 443 kts | 302° |
| 2026-05-05 12:23 | 28.30704 | 33.98464 | 35994 ft | 443 kts | 302° |
| 2026-05-05 12:24 | 28.34589 | 33.93044 | 35998 ft | 443 kts | 302° |
| 2026-05-05 12:24 | 28.38472 | 33.87619 | 36003 ft | 442 kts | 302° |
| 2026-05-05 12:25 | 28.42350 | 33.82195 | 36010 ft | 442 kts | 302° |
| 2026-05-05 12:25 | 28.46221 | 33.76773 | 35995 ft | 441 kts | 303° |
| 2026-05-05 12:26 | 28.50093 | 33.71343 | 36010 ft | 441 kts | 302° |
| 2026-05-05 12:26 | 28.53949 | 33.65928 | 36020 ft | 440 kts | 302° |
| 2026-05-05 12:27 | 28.57814 | 33.60509 | 36023 ft | 441 kts | 303° |
| 2026-05-05 12:27 | 28.61669 | 33.55102 | 36028 ft | 439 kts | 302° |
| 2026-05-05 12:28 | 28.65479 | 33.49739 | 36028 ft | 438 kts | 302° |
| 2026-05-05 12:28 | 28.69304 | 33.44338 | 36038 ft | 438 kts | 303° |
| 2026-05-05 12:29 | 28.73125 | 33.38944 | 36036 ft | 437 kts | 302° |
| 2026-05-05 12:29 | 28.76936 | 33.33552 | 36047 ft | 436 kts | 303° |
| 2026-05-05 12:30 | 28.80741 | 33.28165 | 36030 ft | 436 kts | 303° |
| 2026-05-05 12:30 | 28.84543 | 33.22773 | 36038 ft | 436 kts | 303° |
| 2026-05-05 12:31 | 28.88343 | 33.17378 | 36044 ft | 436 kts | 303° |
| 2026-05-05 12:31 | 28.92166 | 33.11944 | 36053 ft | 436 kts | 303° |
| 2026-05-05 12:32 | 28.95929 | 33.06587 | 36053 ft | 435 kts | 303° |
| 2026-05-05 12:32 | 28.99714 | 33.01192 | 36059 ft | 435 kts | 303° |
| 2026-05-05 12:33 | 29.03504 | 32.95782 | 36056 ft | 436 kts | 303° |
| 2026-05-05 12:33 | 29.07296 | 32.90363 | 36059 ft | 436 kts | 303° |
| 2026-05-05 12:34 | 29.11078 | 32.84951 | 36057 ft | 435 kts | 303° |
| 2026-05-05 12:34 | 29.14859 | 32.79533 | 36062 ft | 436 kts | 303° |
| 2026-05-05 12:35 | 29.18640 | 32.74108 | 36059 ft | 436 kts | 303° |
| 2026-05-05 12:35 | 29.22420 | 32.68678 | 36062 ft | 436 kts | 303° |
| 2026-05-05 12:36 | 29.26204 | 32.63235 | 36066 ft | 436 kts | 303° |
| 2026-05-05 12:36 | 29.29978 | 32.57791 | 36064 ft | 436 kts | 302° |
| 2026-05-05 12:37 | 29.33715 | 32.52333 | 36066 ft | 435 kts | 302° |
| 2026-05-05 12:37 | 29.37473 | 32.46863 | 36062 ft | 436 kts | 302° |
| 2026-05-05 12:38 | 29.41220 | 32.41394 | 36065 ft | 435 kts | 302° |
| 2026-05-05 12:38 | 29.44955 | 32.35937 | 36068 ft | 434 kts | 302° |
| 2026-05-05 12:39 | 29.48685 | 32.30478 | 36076 ft | 435 kts | 302° |
| 2026-05-05 12:39 | 29.52421 | 32.25004 | 36075 ft | 435 kts | 302° |
| 2026-05-05 12:40 | 29.56125 | 32.19570 | 36074 ft | 434 kts | 302° |
| 2026-05-05 12:40 | 29.59837 | 32.14119 | 36065 ft | 433 kts | 302° |
| 2026-05-05 12:41 | 29.63541 | 32.08669 | 36070 ft | 433 kts | 302° |
| 2026-05-05 12:41 | 29.67242 | 32.03217 | 36082 ft | 432 kts | 302° |
| 2026-05-05 12:42 | 29.70942 | 31.97759 | 36067 ft | 432 kts | 302° |
| 2026-05-05 12:42 | 29.74643 | 31.92293 | 36075 ft | 432 kts | 302° |
| 2026-05-05 12:43 | 29.78332 | 31.86834 | 36077 ft | 431 kts | 301° |
| 2026-05-05 12:43 | 29.81892 | 31.81289 | 36077 ft | 430 kts | 301° |
| 2026-05-05 12:44 | 29.85457 | 31.75748 | 36081 ft | 430 kts | 301° |
| 2026-05-05 12:44 | 29.89003 | 31.70205 | 36086 ft | 430 kts | 301° |
| 2026-05-05 12:45 | 29.92542 | 31.64685 | 36083 ft | 430 kts | 301° |
| 2026-05-05 12:45 | 29.96130 | 31.59160 | 36079 ft | 431 kts | 302° |
| 2026-05-05 12:46 | 29.99706 | 31.53618 | 36080 ft | 430 kts | 301° |
| 2026-05-05 12:46 | 30.03279 | 31.48084 | 36084 ft | 429 kts | 301° |
| 2026-05-05 12:47 | 30.06844 | 31.42553 | 36085 ft | 429 kts | 301° |
| 2026-05-05 12:47 | 30.10706 | 31.37262 | 36091 ft | 437 kts | 311° |
| 2026-05-05 12:48 | 30.15162 | 31.32487 | 36086 ft | 437 kts | 311° |
| 2026-05-05 12:48 | 30.19610 | 31.27707 | 36084 ft | 437 kts | 311° |
| 2026-05-05 12:49 | 30.24064 | 31.22921 | 36080 ft | 437 kts | 311° |
| 2026-05-05 12:49 | 30.28517 | 31.18125 | 36066 ft | 436 kts | 311° |
| 2026-05-05 12:50 | 30.32959 | 31.13337 | 36072 ft | 436 kts | 311° |
| 2026-05-05 12:50 | 30.37392 | 31.08553 | 36072 ft | 435 kts | 311° |
| 2026-05-05 12:51 | 30.41820 | 31.03767 | 36072 ft | 435 kts | 311° |
| 2026-05-05 12:51 | 30.46238 | 30.98986 | 36067 ft | 434 kts | 311° |
| 2026-05-05 12:52 | 30.50637 | 30.94220 | 36071 ft | 433 kts | 311° |
| 2026-05-05 12:52 | 30.55033 | 30.89450 | 36076 ft | 433 kts | 311° |
| 2026-05-05 12:53 | 30.59431 | 30.84671 | 36073 ft | 433 kts | 311° |
| 2026-05-05 12:53 | 30.63821 | 30.79897 | 36080 ft | 432 kts | 311° |
| 2026-05-05 12:54 | 30.70400 | 30.72727 | 36080 ft | 432 kts | 311° |
| 2026-05-05 12:55 | 30.74791 | 30.67935 | 36079 ft | 432 kts | 311° |
| 2026-05-05 12:55 | 30.79172 | 30.63149 | 36086 ft | 431 kts | 311° |
| 2026-05-05 12:56 | 30.83543 | 30.58365 | 36087 ft | 431 kts | 311° |
| 2026-05-05 12:56 | 30.87915 | 30.53574 | 36093 ft | 432 kts | 311° |
| 2026-05-05 12:57 | 30.92283 | 30.48783 | 36096 ft | 431 kts | 311° |
| 2026-05-05 12:57 | 30.96649 | 30.43986 | 36096 ft | 431 kts | 311° |
| 2026-05-05 12:58 | 31.00272 | 30.40001 | 36100 ft | 431 kts | 311° |
| 2026-05-05 12:58 | 31.05342 | 30.34411 | 36100 ft | 431 kts | 310° |
| 2026-05-05 12:59 | 31.08465 | 30.29924 | 36110 ft | 423 kts | 298° |
| 2026-05-05 12:59 | 31.10940 | 30.23771 | 36118 ft | 418 kts | 286° |
| 2026-05-05 13:00 | 31.13600 | 30.14061 | 36115 ft | 419 kts | 286° |
| 2026-05-05 13:01 | 31.17411 | 30.01211 | 36115 ft | 421 kts | 295° |
| 2026-05-05 13:01 | 31.20764 | 29.95556 | 36118 ft | 428 kts | 309° |
| 2026-05-05 13:02 | 31.25364 | 29.91043 | 36117 ft | 438 kts | 322° |
| 2026-05-05 13:02 | 31.30703 | 29.87625 | 36111 ft | 439 kts | 325° |
| 2026-05-05 13:03 | 31.36087 | 29.84253 | 36105 ft | 438 kts | 325° |
| 2026-05-05 13:03 | 31.41461 | 29.80889 | 36122 ft | 438 kts | 325° |
| 2026-05-05 13:04 | 31.46836 | 29.77515 | 36109 ft | 438 kts | 325° |
| 2026-05-05 13:04 | 31.52210 | 29.74142 | 36115 ft | 438 kts | 325° |
| 2026-05-05 13:05 | 31.57578 | 29.70765 | 36117 ft | 437 kts | 325° |
| 2026-05-05 13:05 | 31.62945 | 29.67385 | 36113 ft | 437 kts | 325° |
| 2026-05-05 13:06 | 31.68306 | 29.64005 | 36116 ft | 437 kts | 325° |
| 2026-05-05 13:06 | 31.73656 | 29.60627 | 36110 ft | 436 kts | 325° |
| 2026-05-05 13:07 | 31.79004 | 29.57245 | 36110 ft | 437 kts | 326° |
| 2026-05-05 13:07 | 31.84367 | 29.53851 | 36110 ft | 437 kts | 326° |
| 2026-05-05 13:08 | 31.89721 | 29.50457 | 36103 ft | 436 kts | 326° |
| 2026-05-05 13:08 | 31.95060 | 29.47067 | 36108 ft | 436 kts | 326° |
| 2026-05-05 13:09 | 32.00401 | 29.43673 | 36108 ft | 436 kts | 326° |
| 2026-05-05 13:09 | 32.05739 | 29.40276 | 36105 ft | 435 kts | 326° |
| 2026-05-05 13:10 | 32.11067 | 29.36881 | 36105 ft | 435 kts | 326° |
| 2026-05-05 13:10 | 32.16394 | 29.33481 | 36108 ft | 436 kts | 326° |
| 2026-05-05 13:11 | 32.21725 | 29.30074 | 36093 ft | 436 kts | 326° |
| 2026-05-05 13:11 | 32.27051 | 29.26663 | 36094 ft | 435 kts | 326° |
| 2026-05-05 13:12 | 32.32379 | 29.23245 | 36103 ft | 436 kts | 326° |
| 2026-05-05 13:12 | 32.37707 | 29.19823 | 36101 ft | 436 kts | 326° |
| 2026-05-05 13:13 | 32.43032 | 29.16399 | 36101 ft | 436 kts | 326° |
| 2026-05-05 13:13 | 32.48365 | 29.12965 | 36100 ft | 436 kts | 326° |
| 2026-05-05 13:14 | 32.53707 | 29.09519 | 36097 ft | 437 kts | 326° |
| 2026-05-05 13:14 | 32.59050 | 29.06070 | 36098 ft | 437 kts | 326° |
| 2026-05-05 13:15 | 32.64390 | 29.02617 | 36097 ft | 436 kts | 326° |
| 2026-05-05 13:15 | 32.69720 | 28.99165 | 36087 ft | 437 kts | 326° |
| 2026-05-05 13:16 | 32.75022 | 28.95728 | 36094 ft | 436 kts | 326° |
| 2026-05-05 13:16 | 32.80380 | 28.92248 | 36095 ft | 436 kts | 326° |
| 2026-05-05 13:17 | 32.85707 | 28.88785 | 36090 ft | 436 kts | 326° |
| 2026-05-05 13:17 | 32.91038 | 28.85314 | 36092 ft | 436 kts | 326° |
| 2026-05-05 13:18 | 32.96354 | 28.81848 | 36094 ft | 436 kts | 326° |
| 2026-05-05 13:18 | 33.01668 | 28.78378 | 36093 ft | 435 kts | 326° |
| 2026-05-05 13:19 | 33.06979 | 28.74906 | 36094 ft | 435 kts | 327° |
| 2026-05-05 13:19 | 33.12291 | 28.71429 | 36095 ft | 435 kts | 327° |
| 2026-05-05 13:20 | 33.17599 | 28.67948 | 36095 ft | 435 kts | 327° |
| 2026-05-05 13:20 | 33.22909 | 28.64462 | 36094 ft | 435 kts | 327° |
| 2026-05-05 13:21 | 33.28216 | 28.60973 | 36093 ft | 435 kts | 327° |
| 2026-05-05 13:21 | 33.33476 | 28.57510 | 36090 ft | 434 kts | 327° |
| 2026-05-05 13:22 | 33.38765 | 28.54023 | 36086 ft | 434 kts | 327° |
| 2026-05-05 13:22 | 33.44049 | 28.50535 | 36088 ft | 433 kts | 327° |
| 2026-05-05 13:23 | 33.49328 | 28.47044 | 36085 ft | 432 kts | 327° |
| 2026-05-05 13:23 | 33.54595 | 28.43557 | 36084 ft | 432 kts | 327° |
| 2026-05-05 13:24 | 33.59858 | 28.40068 | 36083 ft | 432 kts | 327° |
| 2026-05-05 13:24 | 33.65118 | 28.36575 | 36084 ft | 432 kts | 327° |
| 2026-05-05 13:25 | 33.70386 | 28.33073 | 36082 ft | 433 kts | 327° |
| 2026-05-05 13:25 | 33.75656 | 28.29564 | 36083 ft | 433 kts | 327° |
| 2026-05-05 13:26 | 33.80895 | 28.25965 | 36091 ft | 431 kts | 323° |
| 2026-05-05 13:26 | 33.85912 | 28.21974 | 36085 ft | 432 kts | 323° |
| 2026-05-05 13:27 | 33.90914 | 28.18006 | 36083 ft | 432 kts | 323° |
| 2026-05-05 13:27 | 33.95938 | 28.14003 | 36082 ft | 432 kts | 323° |
| 2026-05-05 13:28 | 34.00967 | 28.09999 | 36080 ft | 432 kts | 323° |
| 2026-05-05 13:28 | 34.05953 | 28.06018 | 36080 ft | 432 kts | 323° |
| 2026-05-05 13:29 | 34.10975 | 28.02005 | 36078 ft | 432 kts | 323° |
| 2026-05-05 13:29 | 34.15999 | 27.97983 | 36069 ft | 432 kts | 323° |
| 2026-05-05 13:30 | 34.21021 | 27.93958 | 36080 ft | 432 kts | 323° |
| 2026-05-05 13:30 | 34.26034 | 27.89935 | 36065 ft | 432 kts | 323° |
| 2026-05-05 13:31 | 34.31017 | 27.85929 | 36079 ft | 433 kts | 323° |
| 2026-05-05 13:31 | 34.36033 | 27.81891 | 36070 ft | 432 kts | 323° |
| 2026-05-05 13:32 | 34.41053 | 27.77844 | 36065 ft | 432 kts | 323° |
| 2026-05-05 13:32 | 34.46041 | 27.73816 | 36073 ft | 432 kts | 324° |
| 2026-05-05 13:33 | 34.51038 | 27.69776 | 36073 ft | 432 kts | 324° |
| 2026-05-05 13:33 | 34.56040 | 27.65726 | 36068 ft | 432 kts | 324° |
| 2026-05-05 13:34 | 34.61030 | 27.61679 | 36069 ft | 432 kts | 324° |
| 2026-05-05 13:34 | 34.66028 | 27.57620 | 36067 ft | 432 kts | 324° |
| 2026-05-05 13:35 | 34.70174 | 27.54248 | 36067 ft | 431 kts | 324° |
| 2026-05-05 13:35 | 34.75161 | 27.50188 | 36066 ft | 431 kts | 324° |
| 2026-05-05 13:36 | 34.80143 | 27.46125 | 36067 ft | 431 kts | 324° |
| 2026-05-05 13:36 | 34.85160 | 27.42027 | 36063 ft | 431 kts | 324° |
| 2026-05-05 13:37 | 34.90142 | 27.37952 | 36062 ft | 431 kts | 324° |
| 2026-05-05 13:37 | 34.95130 | 27.33866 | 36068 ft | 432 kts | 324° |
| 2026-05-05 13:38 | 35.00080 | 27.29805 | 36069 ft | 431 kts | 324° |
| 2026-05-05 13:38 | 35.05058 | 27.25715 | 36066 ft | 432 kts | 324° |
| 2026-05-05 13:39 | 35.10043 | 27.21613 | 36062 ft | 432 kts | 324° |
| 2026-05-05 13:39 | 35.15027 | 27.17505 | 36068 ft | 432 kts | 324° |
| 2026-05-05 13:40 | 35.20031 | 27.13376 | 36065 ft | 432 kts | 324° |
| 2026-05-05 13:40 | 35.25028 | 27.09245 | 36056 ft | 432 kts | 324° |
| 2026-05-05 13:41 | 35.29993 | 27.05135 | 36054 ft | 433 kts | 324° |
| 2026-05-05 13:41 | 35.34999 | 27.00985 | 36061 ft | 433 kts | 324° |
| 2026-05-05 13:42 | 35.39959 | 26.96867 | 36060 ft | 432 kts | 324° |
| 2026-05-05 13:42 | 35.44948 | 26.92717 | 36058 ft | 432 kts | 324° |
| 2026-05-05 13:43 | 35.49923 | 26.88574 | 36055 ft | 431 kts | 324° |
| 2026-05-05 13:43 | 35.54893 | 26.84429 | 36066 ft | 431 kts | 324° |
| 2026-05-05 13:44 | 35.59837 | 26.80298 | 36068 ft | 431 kts | 324° |
| 2026-05-05 13:44 | 35.64807 | 26.76140 | 36069 ft | 431 kts | 324° |
| 2026-05-05 13:45 | 35.69744 | 26.72002 | 36073 ft | 430 kts | 324° |
| 2026-05-05 13:45 | 35.74704 | 26.67840 | 36074 ft | 430 kts | 324° |
| 2026-05-05 13:46 | 35.79666 | 26.63670 | 36070 ft | 431 kts | 324° |
| 2026-05-05 13:46 | 35.84589 | 26.59525 | 36075 ft | 430 kts | 324° |
| 2026-05-05 13:47 | 35.89533 | 26.55357 | 36078 ft | 430 kts | 324° |
| 2026-05-05 13:47 | 35.94467 | 26.51191 | 36075 ft | 429 kts | 324° |
| 2026-05-05 13:48 | 35.99391 | 26.47026 | 36072 ft | 429 kts | 324° |
| 2026-05-05 13:48 | 36.04306 | 26.42863 | 36074 ft | 428 kts | 324° |
| 2026-05-05 13:49 | 36.09222 | 26.38692 | 36072 ft | 429 kts | 324° |
| 2026-05-05 13:49 | 36.14136 | 26.34518 | 36073 ft | 428 kts | 324° |
| 2026-05-05 13:50 | 36.19049 | 26.30337 | 36072 ft | 428 kts | 324° |
| 2026-05-05 13:50 | 36.23955 | 26.26156 | 36072 ft | 428 kts | 324° |
| 2026-05-05 13:51 | 36.28857 | 26.21971 | 36075 ft | 428 kts | 324° |
| 2026-05-05 13:51 | 36.33757 | 26.17782 | 36076 ft | 427 kts | 324° |
| 2026-05-05 13:52 | 36.38653 | 26.13590 | 36076 ft | 427 kts | 324° |
| 2026-05-05 13:52 | 36.43551 | 26.09390 | 36078 ft | 428 kts | 324° |
| 2026-05-05 13:53 | 36.48445 | 26.05186 | 36069 ft | 427 kts | 324° |
| 2026-05-05 13:53 | 36.53333 | 26.00981 | 36074 ft | 427 kts | 324° |
| 2026-05-05 13:54 | 36.58225 | 25.96766 | 36075 ft | 427 kts | 324° |
| 2026-05-05 13:54 | 36.63087 | 25.92570 | 36075 ft | 427 kts | 324° |
| 2026-05-05 13:55 | 36.67979 | 25.88342 | 36072 ft | 426 kts | 324° |
| 2026-05-05 13:55 | 36.72857 | 25.84118 | 36074 ft | 426 kts | 324° |
| 2026-05-05 13:56 | 36.77695 | 25.79924 | 36071 ft | 425 kts | 324° |
| 2026-05-05 13:56 | 36.82562 | 25.75697 | 36069 ft | 425 kts | 324° |
| 2026-05-05 13:57 | 36.87420 | 25.71471 | 36068 ft | 425 kts | 324° |
| 2026-05-05 13:57 | 36.92264 | 25.67252 | 36067 ft | 424 kts | 324° |
| 2026-05-05 13:58 | 36.97110 | 25.63023 | 36073 ft | 425 kts | 324° |
| 2026-05-05 13:58 | 37.01960 | 25.58785 | 36075 ft | 425 kts | 324° |
| 2026-05-05 13:59 | 37.09199 | 25.52446 | 36075 ft | 424 kts | 324° |
| 2026-05-05 14:00 | 37.15677 | 25.46761 | 36073 ft | 425 kts | 324° |
| 2026-05-05 14:00 | 37.21332 | 25.41788 | 36076 ft | 424 kts | 324° |
| 2026-05-05 14:01 | 37.26160 | 25.37535 | 36077 ft | 424 kts | 324° |
| 2026-05-05 14:01 | 37.30781 | 25.32943 | 36081 ft | 424 kts | 320° |
| 2026-05-05 14:02 | 37.35333 | 25.28228 | 36084 ft | 425 kts | 320° |
| 2026-05-05 14:02 | 37.39874 | 25.23485 | 36081 ft | 425 kts | 320° |
| 2026-05-05 14:03 | 37.44426 | 25.18737 | 36079 ft | 425 kts | 320° |
| 2026-05-05 14:03 | 37.48940 | 25.14016 | 36080 ft | 424 kts | 320° |
| 2026-05-05 14:04 | 37.53484 | 25.09257 | 36071 ft | 424 kts | 320° |
| 2026-05-05 14:04 | 37.58016 | 25.04503 | 36068 ft | 424 kts | 320° |
| 2026-05-05 14:05 | 37.62537 | 24.99752 | 36072 ft | 423 kts | 320° |
| 2026-05-05 14:05 | 37.67052 | 24.95001 | 36070 ft | 422 kts | 320° |
| 2026-05-05 14:06 | 37.71559 | 24.90249 | 36067 ft | 422 kts | 320° |
| 2026-05-05 14:06 | 37.76066 | 24.85491 | 36067 ft | 422 kts | 320° |
| 2026-05-05 14:07 | 37.80578 | 24.80718 | 36060 ft | 423 kts | 320° |
| 2026-05-05 14:07 | 37.85102 | 24.75925 | 36059 ft | 424 kts | 320° |
| 2026-05-05 14:08 | 37.89615 | 24.71136 | 36056 ft | 423 kts | 320° |
| 2026-05-05 14:08 | 37.94133 | 24.66334 | 36055 ft | 423 kts | 320° |
| 2026-05-05 14:09 | 37.98610 | 24.61567 | 36048 ft | 422 kts | 320° |
| 2026-05-05 14:09 | 38.03111 | 24.56767 | 36050 ft | 422 kts | 320° |
| 2026-05-05 14:10 | 38.07635 | 24.51934 | 36059 ft | 422 kts | 320° |
| 2026-05-05 14:10 | 38.12106 | 24.47150 | 36055 ft | 423 kts | 320° |
| 2026-05-05 14:11 | 38.16608 | 24.42326 | 36059 ft | 423 kts | 320° |
| 2026-05-05 14:11 | 38.20373 | 24.38284 | 36057 ft | 423 kts | 320° |
| 2026-05-05 14:12 | 38.24863 | 24.33456 | 36055 ft | 423 kts | 320° |
| 2026-05-05 14:12 | 38.29348 | 24.28627 | 36054 ft | 422 kts | 320° |
| 2026-05-05 14:13 | 38.33829 | 24.23793 | 36050 ft | 422 kts | 320° |
| 2026-05-05 14:13 | 38.38310 | 24.18951 | 36050 ft | 423 kts | 320° |
| 2026-05-05 14:14 | 38.42799 | 24.14092 | 36053 ft | 423 kts | 320° |
| 2026-05-05 14:14 | 38.47280 | 24.09234 | 36050 ft | 422 kts | 320° |
| 2026-05-05 14:15 | 38.51752 | 24.04377 | 36046 ft | 422 kts | 320° |
| 2026-05-05 14:15 | 38.56223 | 23.99513 | 36046 ft | 422 kts | 320° |
| 2026-05-05 14:16 | 38.60691 | 23.94645 | 36042 ft | 422 kts | 320° |
| 2026-05-05 14:16 | 38.65159 | 23.89768 | 36047 ft | 422 kts | 320° |
| 2026-05-05 14:17 | 38.69624 | 23.84886 | 36041 ft | 422 kts | 320° |
| 2026-05-05 14:17 | 38.74087 | 23.79997 | 36042 ft | 422 kts | 320° |
| 2026-05-05 14:18 | 38.78546 | 23.75105 | 36037 ft | 421 kts | 320° |
| 2026-05-05 14:18 | 38.82995 | 23.70216 | 36038 ft | 421 kts | 320° |
| 2026-05-05 14:19 | 38.87408 | 23.65357 | 36034 ft | 421 kts | 320° |
| 2026-05-05 14:19 | 38.91849 | 23.60460 | 36029 ft | 421 kts | 320° |
| 2026-05-05 14:20 | 38.96318 | 23.55524 | 36024 ft | 421 kts | 319° |
| 2026-05-05 14:20 | 39.00763 | 23.50604 | 36020 ft | 421 kts | 319° |
| 2026-05-05 14:21 | 39.05173 | 23.45717 | 36017 ft | 421 kts | 319° |
| 2026-05-05 14:21 | 39.09609 | 23.40791 | 36013 ft | 421 kts | 319° |
| 2026-05-05 14:22 | 39.14043 | 23.35859 | 36015 ft | 421 kts | 319° |
| 2026-05-05 14:22 | 39.18475 | 23.30921 | 36022 ft | 421 kts | 319° |
| 2026-05-05 14:23 | 39.22902 | 23.25980 | 36020 ft | 421 kts | 319° |
| 2026-05-05 14:23 | 39.27333 | 23.21026 | 36026 ft | 422 kts | 319° |
| 2026-05-05 14:24 | 39.31771 | 23.16054 | 36035 ft | 422 kts | 319° |
| 2026-05-05 14:24 | 39.36199 | 23.11087 | 36026 ft | 421 kts | 319° |
| 2026-05-05 14:25 | 39.40634 | 23.06102 | 36025 ft | 423 kts | 319° |
| 2026-05-05 14:25 | 39.45076 | 23.01100 | 36034 ft | 423 kts | 319° |
| 2026-05-05 14:26 | 39.49519 | 22.96089 | 36031 ft | 423 kts | 319° |